KPGD

Punta Gorda Airport

Punta Gorda, Florida, USA
METAR KPGD 220153Z AUTO 12004KT 10SM BKN032 25/21 A3007 RMK AO2 SLP183 T02500206
Observed Flight Rules
May-22 @ 01:53 UTC (42 minutes ago) Visual Flight Rules
Wind Visibility Clouds
120° at 4 knots 10 miles
  • Broken at 3,200' AGL
Temperatures Readings
Current 25°C / 77°F
Dewpoint 21°C / 70°F
Humidity 79%
Altimeter 30.07" Hg
Pressure 1018.3 hPa
Elevation 7
METAR KPGD 220153Z AUTO 12004KT 10SM BKN032 25/21 A3007 RMK AO2 SLP183 T02500206
Observed Flight Rules
May-22 @ 01:53 UTC
(42 minutes ago)
VFR
Wind Visibility
120° at 4 knots 10 miles
Clouds
  • Broken at 3,200' AGL
Temperature Dewpoint
25°C / 77°F 21°C / 70°F
Humidity Altimeter Pressure
79% 30.07" Hg 1018.3 hPa